createdAt,value
2023-05-17T00:00:41.453Z,100.00
2023-05-17T00:03:08.099Z,100.00
2023-05-17T00:05:34.721Z,100.00
2023-05-17T00:08:01.206Z,100.00
2023-05-17T00:10:27.828Z,100.00
2023-05-17T00:12:54.295Z,100.00
2023-05-17T00:15:20.873Z,100.00
2023-05-17T00:17:47.493Z,100.00
2023-05-17T00:20:14.180Z,100.00
2023-05-17T00:22:41.067Z,100.00
2023-05-17T00:25:08.068Z,100.00
2023-05-17T00:27:34.688Z,100.00
2023-05-17T00:30:01.271Z,100.00
2023-05-17T00:32:27.813Z,100.00
2023-05-17T00:34:54.317Z,100.00
2023-05-17T00:37:20.892Z,100.00
2023-05-17T00:39:47.509Z,100.00
2023-05-17T00:42:14.582Z,100.00
2023-05-17T00:44:41.269Z,100.00
2023-05-17T00:47:07.869Z,100.00
2023-05-17T00:49:34.453Z,100.00
2023-05-17T00:52:01.091Z,100.00
2023-05-17T00:54:27.828Z,100.00
2023-05-17T00:56:57.037Z,99.87
2023-05-17T00:59:24.397Z,99.56
2023-05-17T01:01:52.353Z,100.00
2023-05-17T01:04:19.051Z,98.99
2023-05-17T01:06:46.072Z,99.47
2023-05-17T01:09:12.793Z,99.52
2023-05-17T01:12:05.541Z,99.17
2023-05-17T01:15:03.403Z,99.37
2023-05-17T01:17:33.028Z,100.00
2023-05-17T01:20:11.796Z,99.91
2023-05-17T01:23:03.387Z,99.49
2023-05-17T01:25:48.384Z,99.31
2023-05-17T01:28:16.525Z,100.00
2023-05-17T01:30:46.235Z,99.11
2023-05-17T01:33:13.046Z,99.65
2023-05-17T01:35:40.049Z,99.91
2023-05-17T01:38:06.570Z,99.96
2023-05-17T01:40:44.070Z,98.97
2023-05-17T01:43:21.703Z,98.38
2023-05-17T01:46:00.960Z,98.64
2023-05-17T01:48:41.223Z,99.12
2023-05-17T01:51:11.972Z,99.21
2023-05-17T01:53:43.033Z,99.12
2023-05-17T01:56:36.951Z,99.21
2023-05-17T01:59:04.848Z,99.62
2023-05-17T02:01:32.885Z,99.58
2023-05-17T02:03:59.475Z,100.00
2023-05-17T02:06:26.107Z,99.64
2023-05-17T02:08:52.584Z,99.56
2023-05-17T02:11:19.146Z,99.99
2023-05-17T02:13:45.882Z,99.73
2023-05-17T02:16:12.374Z,100.00
2023-05-17T02:18:40.559Z,99.57
2023-05-17T02:21:07.214Z,99.84
2023-05-17T02:23:33.684Z,99.35
2023-05-17T02:26:00.214Z,99.76
2023-05-17T02:28:27.539Z,98.37
2023-05-17T02:30:54.713Z,98.27
2023-05-17T02:33:21.350Z,98.12
2023-05-17T02:35:49.560Z,98.04
2023-05-17T02:38:16.401Z,98.27
2023-05-17T02:40:42.900Z,98.57
2023-05-17T02:43:09.406Z,98.31
2023-05-17T02:45:35.991Z,98.25
2023-05-17T02:48:02.557Z,98.14
2023-05-17T02:50:29.126Z,97.48
2023-05-17T02:52:55.615Z,97.16
2023-05-17T02:55:22.112Z,98.10
2023-05-17T02:57:48.628Z,98.60
2023-05-17T03:00:17.811Z,97.70
2023-05-17T03:02:44.355Z,97.99
2023-05-17T03:05:11.019Z,98.29
2023-05-17T03:07:37.794Z,96.60
2023-05-17T03:10:04.730Z,95.67
2023-05-17T03:12:31.255Z,95.99
2023-05-17T03:14:57.821Z,96.20
2023-05-17T03:17:24.555Z,97.67
2023-05-17T03:19:51.358Z,96.67
2023-05-17T03:22:17.970Z,95.97
2023-05-17T03:24:44.512Z,96.54
2023-05-17T03:27:11.059Z,96.62
2023-05-17T03:29:37.728Z,96.70
2023-05-17T03:32:04.623Z,95.62
2023-05-17T03:34:31.170Z,95.98
2023-05-17T03:36:57.679Z,95.54
2023-05-17T03:39:24.211Z,97.70
2023-05-17T03:41:51.212Z,97.62
2023-05-17T03:44:17.821Z,97.51
2023-05-17T03:46:44.421Z,97.46
2023-05-17T03:49:11.249Z,97.92
2023-05-17T03:51:38.921Z,97.30
2023-05-17T03:54:05.508Z,98.00
2023-05-17T03:56:32.525Z,99.26
2023-05-17T03:58:59.137Z,98.60
2023-05-17T04:01:25.773Z,98.78
2023-05-17T04:03:52.522Z,98.71
2023-05-17T04:06:19.131Z,99.54
2023-05-17T04:08:45.716Z,99.45
2023-05-17T04:11:15.207Z,99.64
2023-05-17T04:13:42.277Z,99.27
2023-05-17T04:16:10.370Z,98.56
2023-05-17T04:18:38.135Z,99.30
2023-05-17T04:21:05.780Z,98.80
2023-05-17T04:23:33.542Z,97.60
2023-05-17T04:26:00.113Z,97.63
2023-05-17T04:28:27.116Z,97.59
2023-05-17T04:30:54.287Z,97.69
2023-05-17T04:33:20.983Z,97.52
2023-05-17T04:35:47.789Z,97.75
2023-05-17T04:38:14.335Z,96.70
2023-05-17T04:40:40.955Z,96.62
2023-05-17T04:43:07.490Z,96.18
2023-05-17T04:45:34.241Z,94.52
2023-05-17T04:51:39.362Z,94.57
2023-05-17T04:54:10.883Z,95.07
2023-05-17T04:56:37.417Z,94.17
2023-05-17T04:59:03.929Z,94.47
2023-05-17T05:01:31.017Z,94.47
2023-05-17T05:03:58.582Z,94.88
2023-05-17T05:06:25.301Z,94.14
2023-05-17T05:08:52.592Z,93.87
2023-05-17T05:11:19.530Z,92.83
2023-05-17T05:13:46.265Z,93.41
2023-05-17T05:16:12.876Z,92.53
2023-05-17T05:18:39.581Z,91.37
2023-05-17T05:21:06.496Z,90.41
2023-05-17T05:23:33.038Z,90.48
2023-05-17T05:25:59.706Z,91.63
2023-05-17T05:28:26.236Z,91.51
2023-05-17T05:30:58.578Z,89.60
2023-05-17T05:33:25.949Z,88.07
2023-05-17T05:35:52.662Z,87.25
2023-05-17T05:38:19.391Z,86.74
2023-05-17T05:40:49.170Z,85.87
2023-05-17T05:43:15.987Z,83.65
2023-05-17T05:45:46.040Z,83.19
2023-05-17T05:48:13.787Z,82.01
2023-05-17T05:50:45.446Z,79.49
2023-05-17T05:53:18.600Z,78.49
2023-05-17T05:55:45.698Z,77.96
2023-05-17T05:58:12.195Z,74.82
2023-05-17T06:00:38.757Z,72.66
2023-05-17T06:03:06.227Z,70.74
2023-05-17T06:05:32.912Z,69.16
2023-05-17T06:07:59.630Z,68.79
2023-05-17T06:10:26.364Z,68.27
2023-05-17T06:12:52.962Z,67.86
2023-05-17T06:15:19.526Z,66.13
2023-05-17T06:17:46.180Z,66.71
2023-05-17T06:20:13.325Z,65.26
2023-05-17T06:22:39.873Z,63.04
2023-05-17T06:25:06.560Z,62.64
2023-05-17T06:27:33.846Z,61.54
2023-05-17T06:30:00.819Z,60.66
2023-05-17T06:32:27.511Z,58.80
2023-05-17T06:34:54.100Z,58.55
2023-05-17T06:37:20.687Z,57.41
2023-05-17T06:39:55.763Z,56.67
2023-05-17T06:42:26.483Z,56.10
2023-05-17T06:44:53.081Z,56.23
2023-05-17T06:47:19.640Z,54.94
2023-05-17T06:49:46.103Z,55.18
2023-05-17T06:52:12.677Z,53.83
2023-05-17T06:54:39.304Z,53.18
2023-05-17T06:57:05.851Z,52.25
2023-05-17T06:59:32.435Z,53.72
2023-05-17T07:02:00.305Z,53.27
2023-05-17T07:04:27.418Z,53.60
2023-05-17T07:06:54.093Z,54.81
2023-05-17T07:09:21.720Z,55.76
2023-05-17T07:11:48.297Z,56.42
2023-05-17T07:14:14.987Z,56.75
2023-05-17T07:16:41.518Z,58.24
2023-05-17T07:19:08.142Z,56.16
2023-05-17T07:21:34.806Z,54.67
2023-05-17T07:24:01.676Z,54.19
2023-05-17T07:26:28.221Z,52.95
2023-05-17T07:28:54.797Z,53.63
2023-05-17T07:31:21.299Z,53.15
2023-05-17T07:33:47.856Z,52.60
2023-05-17T07:36:14.459Z,52.70
2023-05-17T07:38:41.035Z,50.86
2023-05-17T07:41:09.825Z,49.77
2023-05-17T07:43:37.781Z,48.50
2023-05-17T07:46:04.477Z,46.55
2023-05-17T07:48:31.191Z,45.15
2023-05-17T07:50:57.773Z,45.28
2023-05-17T07:53:24.349Z,45.56
2023-05-17T07:55:51.005Z,45.92
2023-05-17T07:58:17.629Z,43.48
2023-05-17T08:00:44.161Z,41.62
2023-05-17T08:03:10.832Z,40.74
2023-05-17T08:05:37.452Z,41.30
2023-05-17T08:08:04.063Z,40.85
2023-05-17T08:10:30.545Z,39.24
2023-05-17T08:12:57.174Z,39.28
2023-05-17T08:15:23.720Z,39.19
2023-05-17T08:17:50.315Z,40.70
2023-05-17T08:20:17.553Z,44.92
2023-05-17T08:22:44.201Z,46.27
2023-05-17T08:25:10.841Z,45.47
2023-05-17T08:27:38.065Z,46.82
2023-05-17T08:30:09.033Z,47.17
2023-05-17T08:32:38.112Z,46.28
2023-05-17T08:35:05.119Z,47.32
2023-05-17T08:37:31.598Z,48.81
2023-05-17T08:39:58.251Z,46.03
2023-05-17T08:42:27.677Z,49.11
2023-05-17T08:44:55.042Z,45.99
2023-05-17T08:47:33.205Z,47.65
2023-05-17T08:50:00.927Z,47.58
2023-05-17T08:52:31.199Z,48.55
2023-05-17T08:55:00.973Z,46.38
2023-05-17T08:57:28.793Z,46.09
2023-05-17T08:59:55.936Z,45.84
2023-05-17T09:02:23.456Z,44.64
2023-05-17T09:04:55.657Z,45.23
2023-05-17T09:07:23.136Z,46.75
2023-05-17T09:09:54.017Z,46.17
2023-05-17T09:12:23.402Z,44.77
2023-05-17T09:14:51.469Z,44.46
2023-05-17T09:17:20.536Z,44.03
2023-05-17T09:19:48.893Z,46.26
2023-05-17T09:22:18.364Z,45.97
2023-05-17T09:24:45.344Z,48.83
2023-05-17T09:27:17.365Z,47.15
2023-05-17T09:29:47.909Z,48.07
2023-05-17T09:32:16.955Z,44.93
2023-05-17T09:34:45.849Z,45.66
2023-05-17T09:37:14.480Z,44.56
2023-05-17T09:39:41.567Z,42.00
2023-05-17T09:42:09.549Z,40.83
2023-05-17T09:45:09.008Z,40.16
2023-05-17T09:47:35.767Z,41.41
2023-05-17T09:50:04.803Z,41.24
2023-05-17T09:52:35.269Z,42.61
2023-05-17T09:55:01.890Z,43.84
2023-05-17T09:57:36.964Z,43.45
2023-05-17T10:00:09.598Z,44.98
2023-05-17T10:02:37.277Z,45.19
2023-05-17T10:05:11.326Z,42.94
2023-05-17T10:07:38.633Z,42.93
2023-05-17T10:10:06.689Z,42.09
2023-05-17T10:12:36.145Z,41.10
2023-05-17T10:15:03.463Z,38.49
2023-05-17T10:17:30.526Z,39.42
2023-05-17T10:19:58.453Z,38.61
2023-05-17T10:22:27.227Z,40.60
2023-05-17T10:24:53.850Z,39.07
2023-05-17T10:27:20.904Z,38.78
2023-05-17T10:29:50.404Z,38.79
2023-05-17T10:32:19.627Z,38.38
2023-05-17T10:34:54.467Z,35.44
2023-05-17T10:37:29.334Z,33.60
2023-05-17T10:39:57.079Z,33.14
2023-05-17T10:42:25.080Z,33.18
2023-05-17T10:44:54.578Z,33.66
2023-05-17T10:47:21.554Z,33.79
2023-05-17T10:49:50.137Z,36.08
2023-05-17T10:52:23.744Z,35.64
2023-05-17T10:54:50.679Z,37.37
2023-05-17T10:57:22.381Z,37.97
2023-05-17T11:00:00.435Z,32.85
2023-05-17T11:02:28.798Z,34.50
2023-05-17T11:05:00.388Z,36.22
2023-05-17T11:07:32.772Z,34.90
2023-05-17T11:10:08.570Z,35.76
2023-05-17T11:12:42.907Z,36.23
2023-05-17T11:15:16.554Z,37.48
2023-05-17T11:17:43.038Z,37.04
2023-05-17T11:20:16.856Z,38.15
2023-05-17T11:22:50.702Z,38.69
2023-05-17T11:25:17.343Z,38.57
2023-05-17T11:27:49.493Z,39.79
2023-05-17T11:30:20.692Z,39.64
2023-05-17T11:32:50.001Z,40.59
2023-05-17T11:35:24.053Z,43.63
2023-05-17T11:37:53.821Z,41.68
2023-05-17T11:40:30.346Z,41.68
2023-05-17T11:43:31.096Z,41.59
2023-05-17T11:46:01.455Z,40.54
2023-05-17T11:48:30.149Z,40.81
2023-05-17T11:50:57.725Z,41.81
2023-05-17T11:53:25.748Z,43.08
2023-05-17T11:55:52.954Z,43.97
2023-05-17T11:58:24.185Z,47.58
2023-05-17T12:00:55.538Z,42.67
2023-05-17T12:03:26.961Z,43.08
2023-05-17T12:06:09.943Z,43.30
2023-05-17T12:08:38.687Z,42.94
2023-05-17T12:11:06.829Z,37.83
2023-05-17T12:13:35.862Z,36.16
2023-05-17T12:16:11.355Z,31.86
2023-05-17T12:18:40.286Z,31.88
2023-05-17T12:21:08.378Z,30.59
2023-05-17T12:23:47.813Z,30.37
2023-05-17T12:26:23.530Z,30.07
2023-05-17T12:28:59.847Z,28.53
2023-05-17T12:31:33.432Z,32.03
2023-05-17T12:34:02.578Z,30.81
2023-05-17T12:36:30.524Z,30.97
2023-05-17T12:38:57.629Z,30.32
2023-05-17T12:41:28.768Z,27.77
2023-05-17T12:44:06.098Z,29.07
2023-05-17T12:46:40.189Z,28.10
2023-05-17T12:49:08.599Z,27.79
2023-05-17T12:51:43.649Z,30.41
2023-05-17T12:54:11.923Z,34.95
2023-05-17T12:56:42.749Z,37.84
2023-05-17T12:59:16.829Z,40.06
2023-05-17T13:01:45.557Z,39.93
2023-05-17T13:04:13.475Z,38.07
2023-05-17T13:06:50.972Z,39.10
2023-05-17T13:09:19.269Z,39.93
2023-05-17T13:11:53.588Z,40.54
2023-05-17T13:14:47.051Z,41.53
2023-05-17T13:17:25.695Z,43.13
2023-05-17T13:19:52.929Z,41.33
2023-05-17T13:22:19.499Z,40.57
2023-05-17T13:24:46.066Z,43.34
2023-05-17T13:27:12.695Z,43.09
2023-05-17T13:29:41.754Z,42.29
2023-05-17T13:32:09.820Z,44.08
2023-05-17T13:34:36.821Z,45.76
2023-05-17T13:37:04.533Z,45.50
2023-05-17T13:39:31.171Z,42.57
2023-05-17T13:41:57.935Z,41.63
2023-05-17T13:44:24.822Z,40.49
2023-05-17T13:46:51.435Z,43.35
2023-05-17T13:49:18.395Z,42.78
2023-05-17T13:51:45.146Z,40.08
2023-05-17T13:54:11.874Z,41.27
2023-05-17T13:56:38.668Z,42.28
2023-05-17T13:59:05.532Z,41.14
2023-05-17T14:01:32.039Z,40.41
2023-05-17T14:04:00.593Z,41.25
2023-05-17T14:06:27.606Z,39.77
2023-05-17T14:08:55.943Z,43.14
2023-05-17T14:11:22.811Z,38.30
2023-05-17T14:13:49.473Z,40.25
2023-05-17T14:16:16.235Z,44.14
2023-05-17T14:18:43.245Z,44.18
2023-05-17T14:21:10.062Z,44.51
2023-05-17T14:23:36.761Z,45.17
2023-05-17T14:26:07.132Z,45.23
2023-05-17T14:28:36.337Z,45.13
2023-05-17T14:31:02.977Z,43.94
2023-05-17T14:33:29.563Z,45.34
2023-05-17T14:35:56.171Z,44.54
2023-05-17T14:38:23.231Z,43.38
2023-05-17T14:40:49.804Z,45.91
2023-05-17T14:43:16.757Z,47.16
2023-05-17T14:45:43.351Z,44.85
2023-05-17T14:48:09.993Z,46.13
2023-05-17T14:50:36.839Z,46.72
2023-05-17T14:53:03.372Z,46.14
2023-05-17T14:55:30.126Z,45.54
2023-05-17T14:57:57.999Z,46.12
2023-05-17T15:00:25.405Z,45.62
2023-05-17T15:02:51.948Z,43.38
2023-05-17T15:05:18.615Z,43.74
2023-05-17T15:07:45.207Z,43.49
2023-05-17T15:10:13.083Z,45.97
2023-05-17T15:12:39.610Z,48.80
2023-05-17T15:15:06.857Z,48.43
2023-05-17T15:17:33.887Z,49.53
2023-05-17T15:20:00.659Z,46.84
2023-05-17T15:22:27.186Z,49.64
2023-05-17T15:24:54.355Z,48.96
2023-05-17T15:27:21.061Z,48.86
2023-05-17T15:29:47.604Z,48.21
2023-05-17T15:32:14.286Z,49.66
2023-05-17T15:34:41.234Z,48.91
2023-05-17T15:37:07.747Z,48.51
2023-05-17T15:39:34.248Z,47.54
2023-05-17T15:42:00.981Z,47.96
2023-05-17T15:44:27.490Z,47.69
2023-05-17T15:46:53.963Z,50.05
2023-05-17T15:49:20.617Z,49.00
2023-05-17T15:51:47.220Z,49.88
2023-05-17T15:54:14.798Z,49.80
2023-05-17T15:56:42.054Z,50.36
2023-05-17T15:59:08.625Z,50.27
2023-05-17T16:01:35.617Z,49.47
2023-05-17T16:04:02.157Z,50.35
2023-05-17T16:06:34.782Z,51.52
2023-05-17T16:09:02.297Z,51.33
2023-05-17T16:11:29.144Z,50.39
2023-05-17T16:13:56.903Z,50.69
2023-05-17T16:16:23.398Z,50.80
2023-05-17T16:18:49.969Z,54.62
2023-05-17T16:21:16.907Z,53.40
2023-05-17T16:23:43.555Z,53.05
2023-05-17T16:26:10.189Z,52.99
2023-05-17T16:28:36.970Z,53.70
2023-05-17T16:31:05.498Z,54.11
2023-05-17T16:33:32.184Z,53.02
2023-05-17T16:35:58.977Z,53.56
2023-05-17T16:38:26.181Z,53.80
2023-05-17T16:40:52.708Z,55.08
2023-05-17T16:43:19.287Z,54.05
2023-05-17T16:45:46.393Z,53.67
2023-05-17T16:48:14.269Z,53.47
2023-05-17T16:50:41.965Z,53.27
2023-05-17T16:53:08.754Z,53.47
2023-05-17T16:55:36.315Z,52.81
2023-05-17T16:58:03.269Z,54.05
2023-05-17T17:00:30.163Z,54.96
2023-05-17T17:02:58.402Z,55.95
2023-05-17T17:05:25.114Z,55.75
2023-05-17T17:07:51.652Z,54.89
2023-05-17T17:10:20.020Z,55.92
2023-05-17T17:12:47.321Z,55.55
2023-05-17T17:15:14.135Z,56.01
2023-05-17T17:17:40.700Z,55.66
2023-05-17T17:20:09.070Z,56.25
2023-05-17T17:22:36.005Z,58.10
2023-05-17T17:25:02.690Z,58.57
2023-05-17T17:27:29.253Z,57.90
2023-05-17T17:29:55.906Z,56.30
2023-05-17T17:32:22.531Z,56.05
2023-05-17T17:34:49.091Z,56.20
2023-05-17T17:37:15.611Z,56.61
2023-05-17T17:39:42.183Z,53.95
2023-05-17T17:42:09.954Z,53.85
2023-05-17T17:44:36.563Z,53.95
2023-05-17T17:47:03.251Z,51.78
2023-05-17T17:49:30.160Z,51.79
2023-05-17T17:51:58.098Z,49.32
2023-05-17T17:54:24.724Z,53.17
2023-05-17T17:56:51.261Z,54.73
2023-05-17T17:59:17.840Z,57.04
2023-05-17T18:01:44.623Z,57.79
2023-05-17T18:04:13.544Z,56.59
2023-05-17T18:06:41.882Z,56.35
2023-05-17T18:09:08.769Z,56.20
2023-05-17T18:11:35.405Z,57.44
2023-05-17T18:14:02.635Z,56.83
2023-05-17T18:16:29.440Z,57.58
2023-05-17T18:18:56.359Z,57.35
2023-05-17T18:21:23.421Z,57.57
2023-05-17T18:23:50.118Z,57.58
2023-05-17T18:26:16.589Z,59.00
2023-05-17T18:28:43.321Z,58.16
2023-05-17T18:31:10.615Z,58.96
2023-05-17T18:33:37.201Z,58.82
2023-05-17T18:36:03.933Z,59.46
2023-05-17T18:38:30.570Z,60.68
2023-05-17T18:40:57.194Z,60.58
2023-05-17T18:43:23.797Z,57.82
2023-05-17T18:45:51.241Z,54.60
2023-05-17T18:48:18.048Z,59.00
2023-05-17T18:50:44.911Z,60.28
2023-05-17T18:53:12.877Z,60.25
2023-05-17T18:55:39.672Z,60.02
2023-05-17T18:58:06.219Z,58.88
2023-05-17T19:00:33.561Z,56.30
2023-05-17T19:03:00.262Z,53.83
2023-05-17T19:05:26.913Z,54.13
2023-05-17T19:07:53.419Z,55.18
2023-05-17T19:10:20.797Z,53.09
2023-05-17T19:12:47.500Z,52.80
2023-05-17T19:15:14.126Z,52.01
2023-05-17T19:17:40.794Z,51.44
2023-05-17T19:20:08.276Z,52.79
2023-05-17T19:22:35.882Z,53.30
2023-05-17T19:25:02.622Z,52.08
2023-05-17T19:27:29.730Z,51.90
2023-05-17T19:29:56.368Z,52.98
2023-05-17T19:32:22.992Z,53.09
2023-05-17T19:34:49.936Z,53.87
2023-05-17T19:37:16.703Z,54.62
2023-05-17T19:39:43.330Z,54.76
2023-05-17T19:42:09.914Z,55.24
2023-05-17T19:44:36.417Z,54.10
2023-05-17T19:47:02.979Z,55.13
2023-05-17T19:49:29.598Z,54.54
2023-05-17T19:52:00.545Z,54.54
2023-05-17T19:54:30.542Z,53.64
2023-05-17T19:56:58.141Z,56.07
2023-05-17T19:59:24.754Z,57.66
2023-05-17T20:01:51.304Z,55.01
2023-05-17T20:04:17.949Z,57.14
2023-05-17T20:06:44.749Z,56.56
2023-05-17T20:09:11.532Z,55.02
2023-05-17T20:11:38.184Z,56.73
2023-05-17T20:14:04.776Z,55.22
2023-05-17T20:16:31.416Z,55.33
2023-05-17T20:18:58.534Z,54.98
2023-05-17T20:21:26.427Z,55.29
2023-05-17T20:24:00.733Z,55.38
2023-05-17T20:26:31.741Z,55.13
2023-05-17T20:28:59.138Z,55.28
2023-05-17T20:31:26.240Z,56.26
2023-05-17T20:33:53.435Z,56.05
2023-05-17T20:36:20.032Z,56.76
2023-05-17T20:38:46.603Z,56.93
2023-05-17T20:41:14.937Z,57.28
2023-05-17T20:43:45.265Z,55.57
2023-05-17T20:46:13.236Z,56.10
2023-05-17T20:48:42.990Z,57.92
2023-05-17T20:51:10.475Z,56.89
2023-05-17T20:53:37.720Z,57.36
2023-05-17T20:56:04.724Z,57.76
2023-05-17T20:58:31.462Z,58.58
2023-05-17T21:00:59.959Z,58.50
2023-05-17T21:03:33.218Z,60.17
2023-05-17T21:06:05.137Z,59.89
2023-05-17T21:08:32.871Z,59.67
2023-05-17T21:10:59.621Z,59.38
2023-05-17T21:13:26.634Z,59.47
2023-05-17T21:15:56.565Z,59.56
2023-05-17T21:18:23.781Z,60.37
2023-05-17T21:20:51.465Z,61.62
2023-05-17T21:23:18.761Z,62.64
2023-05-17T21:25:45.449Z,61.40
2023-05-17T21:28:12.004Z,61.72
2023-05-17T21:30:38.663Z,61.16
2023-05-17T21:33:05.714Z,61.95
2023-05-17T21:35:32.634Z,62.84
2023-05-17T21:37:59.301Z,62.06
2023-05-17T21:40:25.979Z,62.73
2023-05-17T21:42:52.494Z,64.95
2023-05-17T21:45:19.107Z,63.86
2023-05-17T21:47:45.654Z,63.02
2023-05-17T21:50:12.289Z,63.48
2023-05-17T21:52:38.802Z,64.95
2023-05-17T21:55:06.003Z,66.09
2023-05-17T21:57:36.140Z,66.45
2023-05-17T22:00:05.854Z,66.04
2023-05-17T22:02:35.203Z,68.58
2023-05-17T22:05:02.238Z,68.81
2023-05-17T22:07:28.820Z,68.55
2023-05-17T22:09:55.409Z,68.26
2023-05-17T22:12:25.448Z,68.50
2023-05-17T22:14:54.249Z,69.16
2023-05-17T22:17:35.192Z,70.75
2023-05-17T22:20:11.394Z,70.85
2023-05-17T22:22:38.227Z,71.93
2023-05-17T22:25:05.444Z,72.37
2023-05-17T22:27:31.968Z,72.14
2023-05-17T22:29:58.533Z,70.92
2023-05-17T22:32:25.122Z,71.47
2023-05-17T22:34:52.879Z,72.96
2023-05-17T22:37:22.488Z,72.91
2023-05-17T22:39:49.157Z,73.75
2023-05-17T22:42:15.813Z,73.41
2023-05-17T22:44:42.501Z,75.67
2023-05-17T22:47:09.304Z,76.01
2023-05-17T22:49:35.940Z,75.46
2023-05-17T22:52:05.766Z,77.14
2023-05-17T22:54:33.497Z,76.41
2023-05-17T22:57:01.221Z,75.38
2023-05-17T22:59:28.995Z,75.56
2023-05-17T23:01:55.668Z,77.46
2023-05-17T23:04:26.183Z,78.05
2023-05-17T23:06:54.002Z,79.31
2023-05-17T23:09:23.739Z,79.39
2023-05-17T23:11:50.367Z,79.78
2023-05-17T23:14:17.478Z,80.00
2023-05-17T23:16:44.096Z,80.00
2023-05-17T23:19:10.625Z,81.93
2023-05-17T23:21:37.476Z,83.76
2023-05-17T23:24:04.229Z,83.13
2023-05-17T23:26:30.853Z,82.95
2023-05-17T23:28:57.380Z,82.61
2023-05-17T23:31:25.641Z,82.78
2023-05-17T23:33:52.688Z,82.20
2023-05-17T23:36:21.678Z,79.27
2023-05-17T23:38:48.203Z,79.59
2023-05-17T23:41:18.194Z,80.36
2023-05-17T23:43:45.507Z,80.18
2023-05-17T23:46:13.706Z,81.39
2023-05-17T23:48:40.326Z,80.93
2023-05-17T23:51:06.940Z,80.39
2023-05-17T23:53:34.133Z,79.12
2023-05-17T23:56:01.127Z,78.25
2023-05-17T23:58:27.586Z,79.11
